RIPO2: Cimarron River Near Ripley, OK

                                SHEF ID:       RIPO2     Cimarron River near Ripley, OK
STATION TYPE:
Regulating: Stage = 20.00, Flow = 33370

PRECIP ELEVATION STAGE RIV-FLOW AIR-TEMP WIND-DIRWIND-SPEED REL-HUMID VOLTAGE BAT-LOAD
in ft ft cfs F deg mph % volt volt
Ccp-Rev Ccp-Rev Ccp-Rev Ccp-Rev Ccp-Rev Ccp-Rev Ccp-Rev Ccp-Rev Ccp-Rev Ccp-Rev
(America/Chicago)
02/07 00:00 0.00 ---- 7.85 575 113.18 ---- ---- ---- ---- 12.68
02/07 01:00 0.00 ---- 7.85 575 109.22 ---- ---- ---- ---- 12.63
02/07 02:00 0.00 ---- 7.85 575 105.62 ---- ---- ---- ---- 12.61
02/07 03:00 0.00 ---- 7.85 575 101.84 ---- ---- ---- ---- 12.59
02/07 04:00 0.00 ---- 7.84 570 98.96 ---- ---- ---- ---- 12.57
02/07 05:00 0.00 ---- 7.84 570 96.98 ---- ---- ---- ---- 12.53
02/07 06:00 0.00 ---- 7.84 570 94.82 ---- ---- ---- ---- 12.51
02/07 07:00 0.00 ---- 7.84 570 92.84 ---- ---- ---- ---- 12.48
02/07 08:00 0.00 ---- 7.83 565 93.20 ---- ---- ---- ---- 12.46
02/07 09:00 0.00 ---- 7.83 565 100.04 ---- ---- ---- ---- 12.50
02/07 10:00 0.00 ---- 7.75 523 113.72 ---- ---- ---- ---- 12.96
02/07 11:00 0.00 ---- 7.73 513 124.88 ---- ---- ---- ---- 13.65
02/07 12:00 0.00 ---- 7.73 513 132.08 ---- ---- ---- ---- 13.69
02/07 13:00 0.00 ---- 7.73 513 138.38 ---- ---- ---- ---- 13.62
02/07 14:00 0.00 ---- 7.76 528 144.68 ---- ---- ---- ---- 13.59
02/07 15:00 0.00 ---- 7.74 518 149.36 ---- ---- ---- ---- 13.52
02/07 16:00 0.00 ---- 7.76 528 152.60 ---- ---- ---- ---- 13.45
02/07 17:00 0.00 ---- 7.77 533 153.68 ---- ---- ---- ---- 13.41
02/07 18:00 0.00 ---- 7.78 539 148.46 ---- ---- ---- ---- 13.39
02/07 19:00 0.00 ---- 7.78 539 142.16 ---- ---- ---- ---- 13.26
02/07 20:00 0.00 ---- 7.79 544 138.56 ---- ---- ---- ---- 13.05
02/07 21:00 0.00 ---- 7.79 544 135.68 ---- ---- ---- ---- 12.90
02/07 22:00 0.00 ---- 7.79 544 131.90 ---- ---- ---- ---- 12.80
02/07 23:00 0.00 ---- 7.79 544 129.74 ---- ---- ---- ---- 12.72
Data processed at Sun 08Feb2026 05:02 GMT

NOTICE: If you are parsing this page

Please convert to using our Data API. Starting early 2026 we will be migrating to: https://water.usace.army.mil with modern pages rendered in JavaScript. When this migration completes you will no longer be able to scrape this page! CWMSDataAPI (CDA)

Timeseries IDs (TSIDs)

TSIDs used from left to right in the data table
RIPL.Precip-Inc.Total.1Hour.1Hour.Ccp-Rev
RIPL.Stage.Inst.1Hour.0.Ccp-Rev
RIPL.Flow.Inst.1Hour.0.Ccp-Rev
RIPL.Temp-Air.Inst.1Hour.0.Ccp-Rev
RIPL.Dir-Wind.Inst.1Hour.0.Ccp-Rev
RIPL.Speed-Wind.Inst.1Hour.0.Ccp-Rev
RIPL.%-Humidity.Inst.1Hour.0.Ccp-Rev
RIPL.Volt-Battery.Inst.1Hour.0.Ccp-Rev
RIPL.Volt-Battery Load.Inst.1Hour.0.Ccp-Rev

                            

All information presented herein is the property of the government of the United States of America and may be revised or deleted at any time without prior notice. Dissemination of this information without the expressed written consent of the Public Affairs Office, Tulsa District U.S. Army Corps of Engineers is strictly prohibited. These data are gathered electronically and, as presented, have NOT undergone any form of quality control. These data are NOT guaranteed to be valid or correct.